Time;durP1;ratioP1;P1;durP2;ratioP2;P2;SDS_P1;SDS_P2;PMS_P1;PMS_P2;Temp;Humidity;BMP_temperature;BMP_pressure;BME280_temperature;BME280_humidity;BME280_pressure;Samples;Min_cycle;Max_cycle;Signal;HPM_P1;HPM_P2
2023/03/12 00:01:58;;;;;;;11.10;5.10;;;;;;;;;;4970238;28;20058;-58
2023/03/12 00:04:24;;;;;;;11.15;5.78;;;;;;;;;;4971037;28;20034;-58
2023/03/12 00:06:49;;;;;;;9.82;5.50;;;;;;;;;;4971123;28;20038;-58
2023/03/12 00:09:15;;;;;;;9.35;5.20;;;;;;;;;;4968758;28;20030;-57
2023/03/12 00:11:40;;;;;;;11.18;5.57;;;;;;;;;;4974821;28;20114;-57
2023/03/12 00:14:05;;;;;;;13.82;6.22;;;;;;;;;;4975120;28;20038;-58
2023/03/12 00:16:31;;;;;;;13.43;6.95;;;;;;;;;;4975967;28;20104;-58
2023/03/12 00:18:56;;;;;;;10.57;6.03;;;;;;;;;;4972662;28;20566;-57
2023/03/12 00:21:22;;;;;;;15.93;6.65;;;;;;;;;;4974005;28;20104;-58
2023/03/12 00:23:49;;;;;;;9.40;5.47;;;;;;;;;;4975633;28;20042;-57
2023/03/12 00:26:15;;;;;;;11.35;4.90;;;;;;;;;;4974408;28;20027;-58
2023/03/12 00:28:41;;;;;;;9.73;5.07;;;;;;;;;;4976633;28;20031;-59
2023/03/12 00:31:23;;;;;;;6.57;3.80;;;;;;;;;;4973241;28;20404;-59
2023/03/12 00:33:49;;;;;;;7.72;4.05;;;;;;;;;;4979735;28;20168;-59
2023/03/12 00:36:15;;;;;;;8.80;4.15;;;;;;;;;;4975568;28;20105;-58
2023/03/12 00:38:41;;;;;;;7.18;4.20;;;;;;;;;;4973043;28;20100;-57
2023/03/12 00:41:07;;;;;;;6.75;3.50;;;;;;;;;;4972002;28;20516;-58
2023/03/12 00:43:33;;;;;;;6.55;3.80;;;;;;;;;;4974305;28;20066;-58
2023/03/12 00:45:58;;;;;;;6.80;3.90;;;;;;;;;;4981780;28;20480;-57
2023/03/12 00:48:24;;;;;;;13.25;4.50;;;;;;;;;;4972775;28;20027;-58
2023/03/12 00:50:49;;;;;;;9.30;5.43;;;;;;;;;;4971904;28;20131;-58
2023/03/12 00:53:15;;;;;;;11.15;6.03;;;;;;;;;;4972751;28;20519;-57
2023/03/12 00:55:40;;;;;;;11.32;5.45;;;;;;;;;;4972184;28;20099;-58
2023/03/12 00:58:05;;;;;;;8.88;4.57;;;;;;;;;;4972045;28;20035;-57
2023/03/12 01:00:31;;;;;;;6.88;4.35;;;;;;;;;;4972094;28;20034;-58
2023/03/12 01:02:56;;;;;;;11.57;4.85;;;;;;;;;;4971858;28;20562;-57
2023/03/12 01:05:22;;;;;;;8.68;4.78;;;;;;;;;;4971759;28;20034;-57
2023/03/12 01:07:47;;;;;;;7.30;4.75;;;;;;;;;;4972523;28;20058;-58
2023/03/12 01:10:15;;;;;;;6.60;3.67;;;;;;;;;;4971970;28;20213;-57
2023/03/12 01:12:41;;;;;;;5.93;3.45;;;;;;;;;;4973227;28;20037;-57
2023/03/12 01:15:07;;;;;;;8.20;3.83;;;;;;;;;;4973101;28;20114;-57
2023/03/12 01:17:33;;;;;;;11.23;5.40;;;;;;;;;;4970915;28;20134;-58
2023/03/12 01:19:58;;;;;;;5.95;3.90;;;;;;;;;;4970511;28;20121;-57
2023/03/12 01:22:24;;;;;;;4.78;3.33;;;;;;;;;;4973194;28;20038;-58
2023/03/12 01:24:49;;;;;;;5.75;3.38;;;;;;;;;;4975236;28;20038;-57
2023/03/12 01:27:15;;;;;;;5.68;3.20;;;;;;;;;;4975662;28;20026;-57
2023/03/12 01:29:41;;;;;;;4.72;3.30;;;;;;;;;;4970143;28;20022;-57
2023/03/12 01:32:06;;;;;;;6.35;3.58;;;;;;;;;;4970995;28;20150;-57
2023/03/12 01:34:34;;;;;;;5.35;3.22;;;;;;;;;;4970489;28;20022;-57
2023/03/12 01:37:00;;;;;;;7.57;3.92;;;;;;;;;;4979415;28;20034;-58
2023/03/12 01:39:26;;;;;;;7.13;3.55;;;;;;;;;;4976454;28;20034;-57
2023/03/12 01:41:51;;;;;;;4.68;3.05;;;;;;;;;;4976812;28;20520;-57
2023/03/12 01:44:17;;;;;;;6.50;2.85;;;;;;;;;;4972001;28;20026;-57
2023/03/12 01:46:44;;;;;;;4.82;2.65;;;;;;;;;;5001460;28;20299;-58
2023/03/12 01:49:17;;;;;;;6.85;3.50;;;;;;;;;;4970088;28;20023;-58
2023/03/12 01:51:56;;;;;;;4.63;3.45;;;;;;;;;;4970474;28;20022;-58
2023/03/12 01:54:29;;;;;;;9.63;3.83;;;;;;;;;;4969418;28;20035;-57
2023/03/12 01:56:55;;;;;;;6.18;3.60;;;;;;;;;;4970648;28;20121;-57
2023/03/12 01:59:46;;;;;;;7.70;3.67;;;;;;;;;;4969740;28;20038;-58
2023/03/12 02:02:13;;;;;;;7.40;3.05;;;;;;;;;;4971752;28;20069;-57
2023/03/12 02:04:41;;;;;;;4.82;3.50;;;;;;;;;;4970476;28;20085;-58
2023/03/12 02:07:09;;;;;;;8.57;4.10;;;;;;;;;;4971757;28;20023;-58
2023/03/12 02:09:41;;;;;;;6.22;3.67;;;;;;;;;;4971891;28;20466;-58
2023/03/12 02:12:08;;;;;;;7.93;3.40;;;;;;;;;;4971982;28;20038;-58
2023/03/12 02:14:33;;;;;;;5.95;3.40;;;;;;;;;;4970076;28;20065;-58
2023/03/12 02:16:59;;;;;;;5.53;3.90;;;;;;;;;;4973653;28;20053;-57
2023/03/12 02:19:33;;;;;;;7.28;2.92;;;;;;;;;;4972223;28;20050;-57
2023/03/12 02:21:59;;;;;;;4.72;3.28;;;;;;;;;;4969460;28;20104;-57
2023/03/12 02:25:02;;;;;;;7.53;3.42;;;;;;;;;;4974064;28;20506;-58
2023/03/12 02:27:30;;;;;;;4.95;3.38;;;;;;;;;;4974416;28;20034;-57
2023/03/12 02:29:56;;;;;;;5.55;3.42;;;;;;;;;;4972892;28;20050;-58
2023/03/12 02:32:28;;;;;;;6.10;3.70;;;;;;;;;;4971662;28;20069;-57
2023/03/12 02:34:56;;;;;;;8.32;4.10;;;;;;;;;;4968131;28;20034;-58
2023/03/12 02:37:21;;;;;;;7.65;3.47;;;;;;;;;;4970452;28;20027;-58
2023/03/12 02:39:55;;;;;;;7.50;3.50;;;;;;;;;;4972024;28;20019;-59
2023/03/12 02:42:22;;;;;;;7.70;3.90;;;;;;;;;;4969609;28;20049;-58
2023/03/12 02:44:48;;;;;;;6.95;3.58;;;;;;;;;;4975806;28;20031;-58
2023/03/12 02:47:13;;;;;;;7.53;3.30;;;;;;;;;;4973557;28;20101;-58
2023/03/12 02:49:39;;;;;;;6.35;3.22;;;;;;;;;;4971085;28;20145;-58
2023/03/12 02:52:04;;;;;;;7.03;3.40;;;;;;;;;;4969848;28;20034;-57
2023/03/12 02:54:30;;;;;;;9.38;3.55;;;;;;;;;;4969319;28;20545;-58
2023/03/12 02:56:55;;;;;;;5.85;3.25;;;;;;;;;;4969193;28;20030;-58
2023/03/12 02:59:25;;;;;;;4.80;3.60;;;;;;;;;;4969107;28;20081;-58
2023/03/12 03:01:55;;;;;;;5.45;3.30;;;;;;;;;;4970795;28;20408;-58
2023/03/12 03:04:22;;;;;;;4.57;3.40;;;;;;;;;;4968794;28;20045;-58
2023/03/12 03:06:47;;;;;;;5.00;3.20;;;;;;;;;;4970477;28;20027;-58
2023/03/12 03:09:13;;;;;;;6.10;3.22;;;;;;;;;;4971347;28;20117;-58
2023/03/12 03:11:38;;;;;;;5.15;3.58;;;;;;;;;;4970620;28;20400;-58
2023/03/12 03:14:05;;;;;;;7.47;3.10;;;;;;;;;;4972204;28;20456;-57
2023/03/12 03:16:31;;;;;;;5.57;3.47;;;;;;;;;;4970050;28;20041;-58
2023/03/12 03:18:57;;;;;;;6.90;3.63;;;;;;;;;;4971831;28;20034;-57
2023/03/12 03:21:22;;;;;;;7.38;3.45;;;;;;;;;;4973613;28;20045;-58
2023/03/12 03:23:49;;;;;;;5.68;3.28;;;;;;;;;;4973613;28;20031;-58
2023/03/12 03:26:16;;;;;;;4.57;3.30;;;;;;;;;;4973405;28;20420;-58
2023/03/12 03:28:42;;;;;;;6.53;3.55;;;;;;;;;;4970731;28;20046;-57
2023/03/12 03:31:08;;;;;;;8.30;3.00;;;;;;;;;;4969070;28;20027;-58
2023/03/12 03:33:35;;;;;;;7.95;3.38;;;;;;;;;;4969761;28;20521;-55
2023/03/12 03:36:01;;;;;;;5.00;3.03;;;;;;;;;;4969500;28;20039;-56
2023/03/12 03:38:28;;;;;;;7.00;3.03;;;;;;;;;;4968487;28;20046;-58
2023/03/12 03:40:54;;;;;;;5.45;2.80;;;;;;;;;;4973650;28;20493;-59
2023/03/12 03:43:19;;;;;;;4.80;3.05;;;;;;;;;;4968828;28;20030;-58
2023/03/12 03:45:45;;;;;;;5.13;3.47;;;;;;;;;;4969102;28;20033;-58
2023/03/12 03:48:11;;;;;;;6.95;3.63;;;;;;;;;;4973923;28;20033;-58
2023/03/12 03:50:38;;;;;;;5.03;2.90;;;;;;;;;;4972703;28;20077;-58
2023/03/12 03:53:05;;;;;;;8.45;3.20;;;;;;;;;;4973451;28;20486;-58
2023/03/12 03:55:31;;;;;;;8.52;3.08;;;;;;;;;;4973039;28;20496;-59
2023/03/12 03:57:56;;;;;;;5.28;3.15;;;;;;;;;;4973185;28;20108;-60
2023/03/12 04:00:22;;;;;;;5.40;3.13;;;;;;;;;;4973978;28;20036;-58
2023/03/12 04:02:47;;;;;;;6.90;3.60;;;;;;;;;;4973491;28;20046;-58
2023/03/12 04:05:14;;;;;;;7.10;3.85;;;;;;;;;;4973955;28;20118;-57
2023/03/12 04:07:40;;;;;;;5.60;3.60;;;;;;;;;;4975107;28;20031;-58
2023/03/12 04:10:06;;;;;;;5.97;3.38;;;;;;;;;;4974310;28;20523;-56
2023/03/12 04:12:31;;;;;;;8.32;4.47;;;;;;;;;;4973234;28;20031;-58
2023/03/12 04:14:56;;;;;;;8.35;5.30;;;;;;;;;;4975656;28;20117;-59
2023/03/12 04:17:22;;;;;;;16.13;7.38;;;;;;;;;;4976096;28;20477;-56
2023/03/12 04:19:47;;;;;;;15.70;8.18;;;;;;;;;;4975417;28;20428;-58
2023/03/12 04:22:13;;;;;;;17.73;8.32;;;;;;;;;;4979217;28;20037;-56
2023/03/12 04:24:38;;;;;;;15.35;6.95;;;;;;;;;;5007385;28;20107;-58
2023/03/12 04:27:04;;;;;;;9.85;5.38;;;;;;;;;;4972995;28;20027;-56
2023/03/12 04:29:29;;;;;;;6.80;4.40;;;;;;;;;;4972094;28;20038;-58
2023/03/12 04:31:54;;;;;;;13.25;5.20;;;;;;;;;;4972925;28;20050;-58
2023/03/12 04:34:20;;;;;;;9.73;5.05;;;;;;;;;;4972118;28;20037;-58
2023/03/12 04:36:46;;;;;;;8.27;4.78;;;;;;;;;;4972505;28;20030;-57
2023/03/12 04:39:13;;;;;;;7.80;4.57;;;;;;;;;;4977245;28;20023;-57
2023/03/12 04:41:38;;;;;;;8.43;4.32;;;;;;;;;;4972403;28;20050;-58
2023/03/12 04:44:04;;;;;;;8.38;4.15;;;;;;;;;;4972127;28;20065;-57
2023/03/12 04:46:29;;;;;;;7.65;4.35;;;;;;;;;;4972641;28;20027;-58
2023/03/12 04:48:56;;;;;;;7.55;4.55;;;;;;;;;;4972116;28;20678;-56
2023/03/12 04:51:22;;;;;;;6.88;4.30;;;;;;;;;;4970501;28;20086;-58
2023/03/12 04:53:47;;;;;;;7.40;4.10;;;;;;;;;;4971729;28;20034;-57
2023/03/12 04:56:13;;;;;;;7.00;4.22;;;;;;;;;;4971899;28;20027;-58
2023/03/12 04:58:38;;;;;;;6.35;3.83;;;;;;;;;;4972643;28;20030;-59
2023/03/12 05:01:04;;;;;;;9.27;3.70;;;;;;;;;;4972794;28;20114;-57
2023/03/12 05:03:30;;;;;;;7.65;4.13;;;;;;;;;;4972170;28;20026;-58
2023/03/12 05:05:55;;;;;;;6.53;3.55;;;;;;;;;;4971661;28;20031;-58
2023/03/12 05:08:21;;;;;;;9.05;3.65;;;;;;;;;;4972774;28;20034;-58
2023/03/12 05:10:46;;;;;;;6.32;3.08;;;;;;;;;;4973381;28;20030;-58
2023/03/12 05:13:17;;;;;;;5.55;3.40;;;;;;;;;;4976563;28;20042;-56
2023/03/12 05:15:43;;;;;;;5.35;3.45;;;;;;;;;;4974338;28;20030;-58
2023/03/12 05:18:08;;;;;;;5.57;3.17;;;;;;;;;;4972180;28;20058;-57
2023/03/12 05:20:34;;;;;;;6.15;3.60;;;;;;;;;;4970874;28;20508;-56
2023/03/12 05:22:59;;;;;;;6.07;2.95;;;;;;;;;;4977977;28;20053;-59
2023/03/12 05:25:25;;;;;;;4.32;3.17;;;;;;;;;;4971818;28;20519;-58
2023/03/12 05:27:50;;;;;;;5.93;3.25;;;;;;;;;;4976143;28;20062;-57
2023/03/12 05:30:15;;;;;;;5.47;3.30;;;;;;;;;;4976153;28;20038;-58
2023/03/12 05:32:41;;;;;;;4.38;2.92;;;;;;;;;;4972430;28;20565;-57
2023/03/12 05:35:07;;;;;;;5.25;3.08;;;;;;;;;;4971065;28;20038;-57
2023/03/12 05:37:32;;;;;;;7.65;3.55;;;;;;;;;;4971707;28;20030;-57
2023/03/12 05:39:57;;;;;;;3.65;3.05;;;;;;;;;;4970955;28;20490;-57
2023/03/12 05:42:24;;;;;;;6.15;3.63;;;;;;;;;;4970493;28;20441;-58
2023/03/12 05:44:50;;;;;;;4.53;3.17;;;;;;;;;;4971303;28;20026;-58
2023/03/12 05:47:15;;;;;;;6.80;3.40;;;;;;;;;;4971554;28;20035;-58
2023/03/12 05:49:41;;;;;;;5.20;3.15;;;;;;;;;;4969612;28;20101;-58
2023/03/12 05:52:06;;;;;;;4.97;3.42;;;;;;;;;;4969795;28;20027;-57
2023/03/12 05:54:32;;;;;;;10.00;3.80;;;;;;;;;;4969471;28;20407;-57
2023/03/12 05:56:58;;;;;;;6.40;3.90;;;;;;;;;;4971010;28;20418;-57
2023/03/12 05:59:23;;;;;;;7.22;3.58;;;;;;;;;;4970037;28;20034;-58
2023/03/12 06:01:49;;;;;;;7.30;4.07;;;;;;;;;;4971737;28;20096;-59
2023/03/12 06:04:14;;;;;;;8.43;3.55;;;;;;;;;;4973335;28;20077;-58
2023/03/12 06:06:40;;;;;;;5.50;3.72;;;;;;;;;;4972343;28;20088;-57
2023/03/12 06:09:05;;;;;;;7.43;4.32;;;;;;;;;;4970095;28;20046;-55
2023/03/12 06:11:32;;;;;;;8.23;4.68;;;;;;;;;;4970039;28;20077;-56
2023/03/12 06:13:58;;;;;;;11.38;5.25;;;;;;;;;;4972446;28;20035;-57
2023/03/12 06:16:25;;;;;;;10.25;6.00;;;;;;;;;;4973234;28;20045;-56
2023/03/12 06:19:01;;;;;;;12.07;6.70;;;;;;;;;;4973974;28;20141;-58
2023/03/12 06:21:29;;;;;;;11.75;6.60;;;;;;;;;;4969699;28;20034;-57
2023/03/12 06:23:55;;;;;;;12.38;6.68;;;;;;;;;;4973287;28;21015;-57
2023/03/12 06:26:22;;;;;;;14.05;6.97;;;;;;;;;;4973095;28;20105;-57
2023/03/12 06:28:48;;;;;;;15.23;7.00;;;;;;;;;;4970015;28;20035;-56
2023/03/12 06:31:15;;;;;;;15.27;7.85;;;;;;;;;;4973386;28;20058;-57
2023/03/12 06:33:40;;;;;;;13.93;7.50;;;;;;;;;;4969306;28;20030;-56
2023/03/12 06:36:07;;;;;;;16.92;7.72;;;;;;;;;;4970387;28;20595;-56
2023/03/12 06:38:34;;;;;;;16.88;8.82;;;;;;;;;;4970559;28;20448;-56
2023/03/12 06:41:11;;;;;;;16.55;7.70;;;;;;;;;;4969658;28;20023;-56
2023/03/12 06:43:37;;;;;;;17.90;8.55;;;;;;;;;;4971810;28;20725;-56
2023/03/12 06:46:05;;;;;;;17.55;8.38;;;;;;;;;;4977227;28;20543;-57
2023/03/12 06:48:40;;;;;;;17.17;8.63;;;;;;;;;;5008107;28;20100;-57
2023/03/12 06:51:10;;;;;;;20.92;9.35;;;;;;;;;;4970059;28;20065;-55
2023/03/12 06:53:35;;;;;;;19.98;9.32;;;;;;;;;;4969551;28;20031;-56
2023/03/12 06:56:01;;;;;;;21.98;9.75;;;;;;;;;;4970819;28;20041;-57
2023/03/12 06:58:27;;;;;;;19.40;9.18;;;;;;;;;;4970935;28;20039;-56
2023/03/12 07:00:54;;;;;;;24.73;11.10;;;;;;;;;;4969365;28;20113;-56
2023/03/12 07:03:20;;;;;;;20.15;10.23;;;;;;;;;;4968944;28;20031;-55
2023/03/12 07:05:47;;;;;;;24.73;10.75;;;;;;;;;;4971197;28;20043;-56
2023/03/12 07:08:13;;;;;;;22.70;10.48;;;;;;;;;;4970060;28;20037;-56
2023/03/12 07:10:38;;;;;;;24.98;10.98;;;;;;;;;;4972295;28;20399;-59
2023/03/12 07:13:04;;;;;;;28.08;11.13;;;;;;;;;;4973227;28;20073;-57
2023/03/12 07:15:30;;;;;;;28.55;13.10;;;;;;;;;;4970010;28;20034;-56
2023/03/12 07:17:59;;;;;;;27.70;12.18;;;;;;;;;;4970131;28;20045;-58
2023/03/12 07:20:24;;;;;;;27.92;11.07;;;;;;;;;;4971142;28;20477;-57
2023/03/12 07:22:50;;;;;;;25.23;10.90;;;;;;;;;;4973131;28;20031;-56
2023/03/12 07:25:15;;;;;;;27.70;11.25;;;;;;;;;;4977104;28;20122;-56
2023/03/12 07:27:40;;;;;;;19.45;8.88;;;;;;;;;;4979012;28;20023;-55
2023/03/12 07:30:06;;;;;;;30.63;10.75;;;;;;;;;;4978116;28;20458;-56
2023/03/12 07:32:32;;;;;;;27.52;11.90;;;;;;;;;;4976947;28;20039;-57
2023/03/12 07:34:58;;;;;;;33.22;12.38;;;;;;;;;;4976010;28;20041;-56
2023/03/12 07:37:23;;;;;;;32.13;11.68;;;;;;;;;;4976722;28;20014;-56
2023/03/12 07:39:51;;;;;;;29.35;11.25;;;;;;;;;;4973556;28;20477;-56
2023/03/12 07:42:16;;;;;;;30.42;12.00;;;;;;;;;;4975868;28;20109;-56
2023/03/12 07:44:42;;;;;;;38.25;13.13;;;;;;;;;;4973728;28;20105;-56
2023/03/12 07:47:07;;;;;;;35.75;12.95;;;;;;;;;;4974232;28;20027;-57
2023/03/12 07:49:32;;;;;;;37.45;13.27;;;;;;;;;;4973310;28;20406;-56
2023/03/12 07:51:58;;;;;;;39.35;12.70;;;;;;;;;;4973582;28;20031;-56
2023/03/12 07:54:29;;;;;;;30.67;12.02;;;;;;;;;;4974680;28;20553;-57
2023/03/12 07:56:55;;;;;;;42.88;14.40;;;;;;;;;;4974425;28;20037;-56
2023/03/12 07:59:21;;;;;;;32.78;12.43;;;;;;;;;;4970588;28;20440;-57
2023/03/12 08:01:46;;;;;;;34.33;12.23;;;;;;;;;;4974041;28;20503;-56
2023/03/12 08:04:12;;;;;;;38.65;11.18;;;;;;;;;;4974824;28;20030;-58
2023/03/12 08:06:41;;;;;;;30.05;11.27;;;;;;;;;;4975408;28;20082;-57
2023/03/12 08:09:07;;;;;;;28.88;10.73;;;;;;;;;;4974845;28;20109;-57
2023/03/12 08:11:33;;;;;;;36.70;11.80;;;;;;;;;;4973980;28;20114;-57
2023/03/12 08:13:58;;;;;;;37.42;11.18;;;;;;;;;;4974304;28;20031;-56
2023/03/12 08:16:24;;;;;;;24.30;8.88;;;;;;;;;;4973850;28;20030;-55
2023/03/12 08:18:50;;;;;;;25.80;9.02;;;;;;;;;;4973636;28;20397;-56
2023/03/12 08:21:15;;;;;;;25.10;8.95;;;;;;;;;;4974205;28;20030;-56
2023/03/12 08:23:41;;;;;;;23.65;8.25;;;;;;;;;;4978625;28;20022;-57
2023/03/12 08:26:07;;;;;;;21.95;8.20;;;;;;;;;;4977061;28;20038;-57
2023/03/12 08:28:32;;;;;;;26.80;8.77;;;;;;;;;;4973020;28;20113;-58
2023/03/12 08:30:59;;;;;;;23.63;8.73;;;;;;;;;;4972719;28;20592;-57
2023/03/12 08:33:25;;;;;;;25.70;9.00;;;;;;;;;;4977436;28;20110;-57
2023/03/12 08:35:51;;;;;;;20.02;7.80;;;;;;;;;;4973191;28;20158;-57
2023/03/12 08:38:18;;;;;;;22.70;8.77;;;;;;;;;;4972561;28;20105;-57
2023/03/12 08:40:43;;;;;;;17.70;7.25;;;;;;;;;;4972257;28;20034;-57
2023/03/12 08:43:09;;;;;;;18.58;7.50;;;;;;;;;;4972673;28;20366;-57
2023/03/12 08:45:35;;;;;;;24.00;8.35;;;;;;;;;;4972500;28;20054;-58
2023/03/12 08:48:05;;;;;;;27.00;10.38;;;;;;;;;;4976551;28;20121;-54
2023/03/12 08:50:31;;;;;;;20.98;8.40;;;;;;;;;;4972168;28;20246;-58
2023/03/12 08:52:57;;;;;;;20.60;8.77;;;;;;;;;;4972982;28;20679;-57
2023/03/12 08:55:23;;;;;;;14.30;6.10;;;;;;;;;;4973662;28;20034;-57
2023/03/12 08:57:49;;;;;;;17.85;7.10;;;;;;;;;;4973898;28;20026;-56
2023/03/12 09:00:16;;;;;;;14.85;6.07;;;;;;;;;;4972060;28;20042;-57
2023/03/12 09:02:43;;;;;;;11.85;5.38;;;;;;;;;;4972614;28;20050;-57
2023/03/12 09:05:10;;;;;;;14.80;5.05;;;;;;;;;;4975148;28;20034;-56
2023/03/12 09:07:36;;;;;;;9.35;4.78;;;;;;;;;;4975044;28;20432;-57
2023/03/12 09:10:02;;;;;;;12.15;5.40;;;;;;;;;;4970543;28;20031;-57
2023/03/12 09:12:27;;;;;;;11.18;5.82;;;;;;;;;;4973969;28;20054;-57
2023/03/12 09:14:52;;;;;;;9.63;4.53;;;;;;;;;;4971981;28;20033;-56
2023/03/12 09:17:18;;;;;;;12.77;4.68;;;;;;;;;;4971900;28;20037;-57
2023/03/12 09:19:43;;;;;;;8.68;4.65;;;;;;;;;;4975807;28;20031;-57
2023/03/12 09:22:09;;;;;;;8.77;4.93;;;;;;;;;;4976369;28;20481;-57
2023/03/12 09:24:34;;;;;;;7.47;4.32;;;;;;;;;;4976446;28;20042;-57
2023/03/12 09:27:01;;;;;;;6.85;4.30;;;;;;;;;;4976289;28;20023;-57
2023/03/12 09:29:26;;;;;;;10.63;4.30;;;;;;;;;;4971216;28;20038;-56
2023/03/12 09:31:52;;;;;;;7.35;3.70;;;;;;;;;;4972467;28;20407;-57
2023/03/12 09:34:17;;;;;;;6.60;3.75;;;;;;;;;;4972028;28;20058;-57
2023/03/12 09:36:43;;;;;;;8.70;4.70;;;;;;;;;;4978206;28;20064;-59
2023/03/12 09:39:08;;;;;;;10.05;3.58;;;;;;;;;;4972520;28;20076;-56
2023/03/12 09:41:39;;;;;;;8.05;3.60;;;;;;;;;;4970927;28;20208;-55
2023/03/12 09:44:41;;;;;;;6.07;3.55;;;;;;;;;;4971036;28;20031;-57
2023/03/12 09:47:11;;;;;;;5.40;3.30;;;;;;;;;;4969780;28;20058;-54
2023/03/12 09:49:45;;;;;;;7.10;3.72;;;;;;;;;;4969740;28;20049;-55
2023/03/12 09:52:26;;;;;;;5.70;3.05;;;;;;;;;;4970596;28;20054;-56
2023/03/12 09:55:04;;;;;;;6.30;4.18;;;;;;;;;;4971908;28;20030;-57
2023/03/12 09:57:30;;;;;;;7.63;4.07;;;;;;;;;;4971616;28;20420;-56
2023/03/12 09:59:56;;;;;;;5.38;3.30;;;;;;;;;;4968120;28;20058;-56
2023/03/12 10:02:51;;;;;;;8.18;4.78;;;;;;;;;;4971303;28;20503;-56
2023/03/12 10:05:41;;;;;;;7.10;3.63;;;;;;;;;;4966182;28;20027;-55
2023/03/12 10:08:15;;;;;;;9.35;3.30;;;;;;;;;;4967425;28;20050;-56
2023/03/12 10:10:46;;;;;;;7.38;3.85;;;;;;;;;;4968101;28;20579;-56
2023/03/12 10:13:27;;;;;;;5.00;4.07;;;;;;;;;;4971935;28;20027;-58
2023/03/12 10:16:05;;;;;;;6.93;4.55;;;;;;;;;;4969152;28;20030;-56
2023/03/12 10:18:30;;;;;;;9.10;4.43;;;;;;;;;;4970437;28;20027;-56
2023/03/12 10:21:26;;;;;;;8.45;3.80;;;;;;;;;;4966761;28;20511;-57
2023/03/12 10:23:52;;;;;;;7.50;4.28;;;;;;;;;;4967551;28;20034;-55
2023/03/12 10:26:20;;;;;;;7.63;4.32;;;;;;;;;;4969839;28;20023;-56
2023/03/12 10:28:54;;;;;;;5.22;3.95;;;;;;;;;;4972078;28;20037;-55
2023/03/12 10:31:39;;;;;;;5.93;3.50;;;;;;;;;;4968134;28;20145;-55
2023/03/12 10:34:21;;;;;;;4.65;3.00;;;;;;;;;;4966307;28;20492;-55
2023/03/12 10:36:47;;;;;;;7.35;3.60;;;;;;;;;;4966834;28;20400;-58
2023/03/12 10:39:18;;;;;;;5.50;3.85;;;;;;;;;;4997395;28;20027;-55
2023/03/12 10:41:46;;;;;;;8.40;3.55;;;;;;;;;;4971042;28;20035;-55
2023/03/12 10:44:23;;;;;;;5.90;3.58;;;;;;;;;;4967949;28;20032;-56
2023/03/12 10:46:48;;;;;;;6.20;3.10;;;;;;;;;;4969174;28;20452;-56
2023/03/12 10:49:20;;;;;;;5.22;2.92;;;;;;;;;;4968527;28;20035;-56
2023/03/12 10:52:05;;;;;;;5.50;2.83;;;;;;;;;;4968106;28;20035;-58
2023/03/12 10:54:34;;;;;;;3.85;2.50;;;;;;;;;;4997578;28;20477;-56
2023/03/12 10:57:00;;;;;;;6.53;2.65;;;;;;;;;;4970199;28;20057;-55
2023/03/12 10:59:32;;;;;;;4.38;2.28;;;;;;;;;;4969461;28;20070;-57
2023/03/12 11:01:58;;;;;;;5.55;2.38;;;;;;;;;;4969857;28;20038;-57
2023/03/12 11:04:30;;;;;;;4.18;2.15;;;;;;;;;;4969952;28;20536;-57
2023/03/12 11:07:21;;;;;;;3.42;1.90;;;;;;;;;;4969127;28;20030;-55
2023/03/12 11:10:07;;;;;;;4.38;1.98;;;;;;;;;;4967380;28;20058;-55
2023/03/12 11:12:35;;;;;;;2.78;1.95;;;;;;;;;;4972700;28;20499;-56
2023/03/12 11:15:39;;;;;;;4.28;2.05;;;;;;;;;;4973019;28;20065;-58
2023/03/12 11:18:20;;;;;;;4.40;2.75;;;;;;;;;;4972204;28;20026;-57
2023/03/12 11:20:47;;;;;;;3.35;1.92;;;;;;;;;;4972312;28;20928;-58
2023/03/12 11:23:19;;;;;;;6.35;1.90;;;;;;;;;;4972427;28;20412;-56
2023/03/12 11:25:55;;;;;;;5.97;2.28;;;;;;;;;;4975054;28;20037;-57
2023/03/12 11:28:24;;;;;;;5.65;2.60;;;;;;;;;;4970184;28;20097;-56
2023/03/12 11:30:52;;;;;;;4.90;2.35;;;;;;;;;;4963545;28;20038;-56
2023/03/12 11:33:17;;;;;;;3.97;2.53;;;;;;;;;;4970366;28;20058;-56
2023/03/12 11:35:51;;;;;;;8.18;2.63;;;;;;;;;;4972943;28;20047;-57
2023/03/12 11:38:35;;;;;;;6.15;2.67;;;;;;;;;;4969654;28;20070;-58
2023/03/12 11:41:23;;;;;;;5.80;2.15;;;;;;;;;;4969407;28;20035;-57
2023/03/12 11:44:11;;;;;;;4.80;1.98;;;;;;;;;;4964037;28;20106;-57
2023/03/12 11:46:51;;;;;;;5.43;1.95;;;;;;;;;;4969212;28;20066;-56
2023/03/12 11:49:40;;;;;;;5.40;1.85;;;;;;;;;;4969405;28;20409;-57
2023/03/12 11:52:44;;;;;;;8.25;2.30;;;;;;;;;;4971226;28;20098;-57
2023/03/12 11:55:17;;;;;;;6.25;2.03;;;;;;;;;;4958149;28;20039;-56
2023/03/12 11:57:56;;;;;;;4.05;2.25;;;;;;;;;;4965232;28;20026;-56
2023/03/12 12:00:32;;;;;;;4.05;1.90;;;;;;;;;;4969557;28;20525;-55
2023/03/12 12:02:57;;;;;;;6.90;1.65;;;;;;;;;;4970613;28;20535;-56
2023/03/12 12:05:37;;;;;;;4.50;2.15;;;;;;;;;;4973535;28;20022;-56
2023/03/12 12:08:21;;;;;;;4.15;2.00;;;;;;;;;;4975761;28;20049;-57
2023/03/12 12:11:05;;;;;;;4.85;2.17;;;;;;;;;;4973190;28;20031;-57
2023/03/12 12:13:45;;;;;;;2.75;1.80;;;;;;;;;;4972842;28;20085;-57
2023/03/12 12:16:32;;;;;;;7.75;1.90;;;;;;;;;;4971176;28;20130;-56
2023/03/12 12:19:13;;;;;;;4.35;1.55;;;;;;;;;;4973001;28;20038;-57
2023/03/12 12:21:52;;;;;;;10.73;2.55;;;;;;;;;;4972879;28;20026;-55
2023/03/12 12:24:36;;;;;;;;;;;;;;;;;;4973004;28;20027;-57
2023/03/12 12:27:24;;;;;;;7.55;2.30;;;;;;;;;;4984772;28;20009;-56
2023/03/12 12:30:15;;;;;;;6.53;2.00;;;;;;;;;;4977276;28;20033;-57
2023/03/12 12:33:02;;;;;;;4.45;1.70;;;;;;;;;;4972639;28;20039;-57
2023/03/12 12:35:39;;;;;;;4.75;1.75;;;;;;;;;;4978620;28;20109;-55
2023/03/12 12:38:28;;;;;;;4.43;1.70;;;;;;;;;;4972658;28;20027;-56
2023/03/12 12:41:06;;;;;;;4.10;2.08;;;;;;;;;;4971092;28;20097;-55
2023/03/12 12:43:37;;;;;;;6.70;1.70;;;;;;;;;;4976329;28;20030;-55
2023/03/12 12:46:21;;;;;;;7.85;2.00;;;;;;;;;;4971698;28;20042;-55
2023/03/12 12:48:56;;;;;;;5.68;2.10;;;;;;;;;;4970422;28;20066;-55
2023/03/12 12:51:30;;;;;;;5.82;2.03;;;;;;;;;;4972676;28;20045;-55
2023/03/12 12:54:20;;;;;;;3.78;1.60;;;;;;;;;;4972749;28;20070;-56
2023/03/12 12:56:53;;;;;;;3.17;1.23;;;;;;;;;;4971923;28;20543;-56
2023/03/12 12:59:29;;;;;;;3.08;1.55;;;;;;;;;;4972257;28;20113;-56
2023/03/12 13:01:56;;;;;;;4.40;1.30;;;;;;;;;;4973700;28;20500;-56
2023/03/12 13:04:37;;;;;;;4.88;1.73;;;;;;;;;;4971783;28;20481;-56
2023/03/12 13:07:23;;;;;;;4.55;1.52;;;;;;;;;;4974558;28;20031;-57
2023/03/12 13:09:51;;;;;;;5.32;2.10;;;;;;;;;;4973989;28;20030;-57
2023/03/12 13:12:29;;;;;;;4.95;1.50;;;;;;;;;;4972432;28;20026;-57
2023/03/12 13:14:57;;;;;;;3.47;1.95;;;;;;;;;;4972810;28;20031;-57
2023/03/12 13:17:22;;;;;;;6.40;1.80;;;;;;;;;;4971117;28;20090;-57
2023/03/12 13:19:50;;;;;;;7.72;2.15;;;;;;;;;;4975762;28;20380;-57
2023/03/12 13:22:24;;;;;;;6.55;2.00;;;;;;;;;;4969933;28;20042;-57
2023/03/12 13:25:11;;;;;;;7.15;2.30;;;;;;;;;;4976603;28;20041;-57
2023/03/12 13:27:39;;;;;;;5.20;2.22;;;;;;;;;;4970895;28;20481;-57
2023/03/12 13:30:32;;;;;;;4.63;1.73;;;;;;;;;;4973014;28;20031;-56
2023/03/12 13:32:58;;;;;;;7.47;1.70;;;;;;;;;;4971180;28;20110;-57
2023/03/12 13:35:23;;;;;;;7.63;2.13;;;;;;;;;;4970922;28;20124;-57
2023/03/12 13:37:51;;;;;;;6.15;2.00;;;;;;;;;;4971255;28;20470;-58
2023/03/12 13:40:36;;;;;;;6.15;1.80;;;;;;;;;;4977962;28;20564;-57
2023/03/12 13:43:05;;;;;;;7.82;1.83;;;;;;;;;;4971940;28;20508;-56
2023/03/12 13:45:31;;;;;;;6.03;2.20;;;;;;;;;;4970887;28;20041;-57
2023/03/12 13:48:01;;;;;;;8.48;2.58;;;;;;;;;;4972298;28;20656;-56
2023/03/12 13:50:40;;;;;;;6.68;1.95;;;;;;;;;;4971740;28;20058;-57
2023/03/12 13:53:13;;;;;;;9.73;2.20;;;;;;;;;;4972828;28;20119;-57
2023/03/12 13:55:39;;;;;;;4.55;1.70;;;;;;;;;;4969191;28;20078;-56
2023/03/12 13:58:22;;;;;;;6.00;1.98;;;;;;;;;;4973698;28;20042;-57
2023/03/12 14:01:04;;;;;;;7.55;2.42;;;;;;;;;;4972599;28;20389;-57
2023/03/12 14:03:38;;;;;;;7.22;2.17;;;;;;;;;;4970761;28;20030;-57
2023/03/12 14:06:03;;;;;;;4.68;2.20;;;;;;;;;;4975130;28;20126;-57
2023/03/12 14:08:50;;;;;;;5.47;1.92;;;;;;;;;;4971565;28;20103;-57
2023/03/12 14:11:32;;;;;;;5.63;1.85;;;;;;;;;;4969152;28;20106;-57
2023/03/12 14:14:40;;;;;;;5.63;1.70;;;;;;;;;;4972418;28;20018;-57
2023/03/12 14:17:13;;;;;;;6.35;1.75;;;;;;;;;;4961864;28;20499;-56
2023/03/12 14:19:42;;;;;;;9.00;1.95;;;;;;;;;;4971032;28;20039;-57
2023/03/12 14:22:11;;;;;;;6.63;2.10;;;;;;;;;;4971880;28;20030;-58
2023/03/12 14:24:41;;;;;;;6.05;2.10;;;;;;;;;;4970326;28;20584;-57
2023/03/12 14:27:13;;;;;;;6.28;1.70;;;;;;;;;;4970978;28;20037;-58
2023/03/12 14:29:43;;;;;;;8.50;3.50;;;;;;;;;;4974164;28;20034;-57
2023/03/12 14:32:20;;;;;;;5.75;1.70;;;;;;;;;;4976868;28;20092;-57
2023/03/12 14:35:24;;;;;;;8.57;2.55;;;;;;;;;;4966030;28;20105;-57
2023/03/12 14:38:09;;;;;;;6.53;1.83;;;;;;;;;;4964627;28;20026;-58
2023/03/12 14:40:43;;;;;;;2.75;1.60;;;;;;;;;;4965468;28;20030;-57
2023/03/12 14:43:23;;;;;;;4.53;1.83;;;;;;;;;;4970445;28;20039;-57
2023/03/12 14:45:52;;;;;;;4.53;1.90;;;;;;;;;;4970873;28;20069;-57
2023/03/12 14:48:31;;;;;;;5.10;2.20;;;;;;;;;;4970684;28;20035;-56
2023/03/12 14:50:58;;;;;;;4.13;1.80;;;;;;;;;;4970219;28;20061;-55
2023/03/12 14:53:28;;;;;;;5.18;2.38;;;;;;;;;;4971611;28;20064;-57
2023/03/12 14:56:02;;;;;;;;;;;;;;;;;;4969937;28;20061;-57